Time;durP1;ratioP1;P1;durP2;ratioP2;P2;SDS_P1;SDS_P2;PMS_P1;PMS_P2;Temp;Humidity;BMP_temperature;BMP_pressure;BME280_temperature;BME280_humidity;BME280_pressure;Samples;Min_cycle;Max_cycle;Signal;HPM_P1;HPM_P2
2021/06/24 00:01:33;;;;;;;9.63;3.00;;;;;;;15.05;88.56;102120.28;5013159;28;20091;-85
2021/06/24 00:03:59;;;;;;;13.02;3.10;;;;;;;15.07;88.94;102120.94;5010749;28;20508;-84
2021/06/24 00:06:24;;;;;;;8.98;2.92;;;;;;;15.04;88.91;102127.38;5011156;28;20127;-84
2021/06/24 00:08:50;;;;;;;7.95;3.42;;;;;;;15.01;88.53;102117.06;5013587;28;20041;-80
2021/06/24 00:11:15;;;;;;;6.43;2.92;;;;;;;14.94;88.53;102098.31;5000399;28;20395;-85
2021/06/24 00:13:42;;;;;;;16.75;2.95;;;;;;;14.91;90.21;102087.22;5018432;28;20069;-84
2021/06/24 00:16:08;;;;;;;17.02;3.20;;;;;;;14.85;90.10;102083.31;5008427;28;20083;-80
2021/06/24 00:18:33;;;;;;;17.55;3.70;;;;;;;14.93;89.78;102093.19;5004728;28;20029;-87
2021/06/24 00:20:59;;;;;;;9.40;3.60;;;;;;;14.89;88.68;102103.19;5016852;28;20046;-83
2021/06/24 00:23:25;;;;;;;10.18;3.28;;;;;;;14.94;88.31;102100.97;4998654;28;20045;-84
2021/06/24 00:25:51;;;;;;;8.63;3.25;;;;;;;14.92;89.36;102092.34;5002476;28;20052;-85
2021/06/24 00:28:17;;;;;;;17.83;3.60;;;;;;;14.85;90.64;102096.53;5015413;28;20119;-86
2021/06/24 00:30:46;;;;;;;11.43;3.28;;;;;;;14.85;90.80;102098.34;5017516;28;20052;-86
2021/06/24 00:33:12;;;;;;;6.07;3.47;;;;;;;14.90;89.41;102104.88;5012666;28;20026;-86
2021/06/24 00:35:38;;;;;;;10.10;3.45;;;;;;;14.89;89.17;102110.28;5027968;28;20084;-84
2021/06/24 00:38:04;;;;;;;10.13;3.47;;;;;;;14.93;88.54;102098.47;5012589;28;20459;-86
2021/06/24 00:40:36;;;;;;;13.20;3.97;;;;;;;14.87;89.52;102093.75;5014078;28;20044;-85
2021/06/24 00:43:04;;;;;;;11.27;3.47;;;;;;;14.88;89.10;102092.75;5030908;28;20510;-86
2021/06/24 00:45:30;;;;;;;10.85;3.30;;;;;;;14.89;88.81;102105.84;5031152;28;20111;-85
2021/06/24 00:47:56;;;;;;;12.30;3.70;;;;;;;14.93;87.41;102111.69;5017074;28;20065;-85
2021/06/24 00:50:22;;;;;;;8.50;3.15;;;;;;;14.91;87.46;102108.34;4997999;28;20688;-85
2021/06/24 00:52:47;;;;;;;7.13;3.20;;;;;;;14.89;89.40;102120.88;5015678;28;20041;-85
2021/06/24 00:55:16;;;;;;;10.07;3.28;;;;;;;14.81;89.90;102132.13;5010219;28;20476;-84
2021/06/24 00:57:45;;;;;;;8.57;3.05;;;;;;;14.76;89.82;102131.72;4998742;28;20403;-83
2021/06/24 01:00:12;;;;;;;9.95;3.22;;;;;;;14.75;89.45;102135.34;5013572;28;20045;-83
2021/06/24 01:02:39;;;;;;;7.22;2.90;;;;;;;14.72;89.74;102135.63;5015331;28;20551;-84
2021/06/24 01:05:05;;;;;;;13.05;3.17;;;;;;;14.67;90.74;102133.38;5014973;28;20048;-88
2021/06/24 01:07:30;;;;;;;15.45;3.00;;;;;;;14.66;91.36;102144.09;5011337;28;20026;-88
2021/06/24 01:10:35;;;;;;;12.48;3.30;;;;;;;14.63;91.89;102125.88;5005404;28;20038;-85
2021/06/24 01:13:02;;;;;;;10.05;3.08;;;;;;;14.62;91.57;102127.69;4987308;28;20041;-84
2021/06/24 01:15:28;;;;;;;9.95;3.35;;;;;;;14.57;91.91;102122.81;5006481;28;20063;-85
2021/06/24 01:17:56;;;;;;;8.30;3.10;;;;;;;14.54;91.37;102123.09;5035339;28;20053;-83
2021/06/24 01:20:25;;;;;;;8.02;3.00;;;;;;;14.50;91.14;102116.38;5020563;28;20036;-83
2021/06/24 01:22:52;;;;;;;10.85;3.53;;;;;;;14.49;91.45;102117.38;4985884;28;20033;-85
2021/06/24 01:25:19;;;;;;;9.35;3.13;;;;;;;14.52;91.89;102122.41;4990206;28;20061;-86
2021/06/24 01:27:45;;;;;;;13.27;3.85;;;;;;;14.54;91.75;102119.59;5020451;28;20033;-86
2021/06/24 01:30:12;;;;;;;11.10;3.38;;;;;;;14.48;90.71;102113.06;4983866;28;20760;-84
2021/06/24 01:32:43;;;;;;;13.88;3.40;;;;;;;14.48;91.51;102113.06;5035719;28;20041;-83
2021/06/24 01:35:11;;;;;;;10.75;3.35;;;;;;;14.45;91.35;102101.94;5011683;28;20045;-83
2021/06/24 01:37:36;;;;;;;14.38;3.33;;;;;;;14.42;91.55;102084.59;4998066;28;20037;-83
2021/06/24 01:40:03;;;;;;;14.13;3.35;;;;;;;14.42;92.98;102081.94;5016061;28;20071;-83
2021/06/24 01:42:29;;;;;;;13.20;3.40;;;;;;;14.50;92.12;102089.16;4997524;28;20034;-84
2021/06/24 01:44:54;;;;;;;24.73;4.07;;;;;;;14.41;93.29;102078.47;5019520;28;20040;-79
2021/06/24 01:47:21;;;;;;;13.18;3.45;;;;;;;14.47;92.78;102079.72;4996887;28;20128;-85
2021/06/24 01:49:46;;;;;;;11.07;3.80;;;;;;;14.45;92.54;102086.97;5001421;28;20777;-83
2021/06/24 01:52:12;;;;;;;17.05;3.38;;;;;;;14.45;93.45;102078.19;5013816;28;20061;-86
2021/06/24 01:54:47;;;;;;;13.35;3.67;;;;;;;14.40;92.80;102084.72;5027957;28;20518;-83
2021/06/24 01:57:16;;;;;;;11.57;3.28;;;;;;;14.40;92.85;102083.88;4999959;28;20526;-85
2021/06/24 01:59:46;;;;;;;8.07;3.35;;;;;;;14.40;92.09;102081.25;5013381;28;20045;-85
2021/06/24 02:02:14;;;;;;;10.88;2.92;;;;;;;14.38;92.55;102086.66;4996662;28;20484;-85
2021/06/24 02:04:51;;;;;;;11.13;3.72;;;;;;;14.39;92.68;102084.84;5028789;28;20037;-84
2021/06/24 02:07:28;;;;;;;8.75;3.10;;;;;;;14.38;92.15;102080.56;5025471;28;20551;-81
2021/06/24 02:10:13;;;;;;;11.63;3.55;;;;;;;14.45;91.45;102084.31;5009458;28;20458;-86
2021/06/24 02:12:50;;;;;;;12.77;3.50;;;;;;;14.38;91.55;102072.63;5018381;28;20068;-86
2021/06/24 02:15:16;;;;;;;12.75;3.78;;;;;;;14.40;91.03;102065.41;5031363;28;20430;-83
2021/06/24 02:17:49;;;;;;;12.52;3.90;;;;;;;14.46;90.56;102066.66;5010524;28;20048;-83
2021/06/24 02:20:17;;;;;;;12.65;4.03;;;;;;;14.44;90.92;102058.06;5035666;28;20072;-83
2021/06/24 02:23:02;;;;;;;15.40;4.53;;;;;;;14.44;91.12;102050.97;5010608;28;20377;-82
2021/06/24 02:25:33;;;;;;;10.07;4.00;;;;;;;14.45;90.09;102042.06;5012879;28;20041;-83
2021/06/24 02:28:17;;;;;;;10.57;3.75;;;;;;;14.39;90.54;102038.19;5028589;28;20021;-83
2021/06/24 02:30:52;;;;;;;15.68;4.03;;;;;;;14.39;90.71;102050.53;4980737;28;20087;-84
2021/06/24 02:33:19;;;;;;;8.45;3.88;;;;;;;14.28;92.14;102048.88;5015576;28;20515;-85
2021/06/24 02:35:55;;;;;;;7.78;3.55;;;;;;;14.20;91.66;102044.31;5015127;28;20060;-84
2021/06/24 02:38:21;;;;;;;17.50;4.60;;;;;;;14.15;91.95;102041.25;5009127;28;20060;-84
2021/06/24 02:40:53;;;;;;;6.67;3.40;;;;;;;14.15;92.72;102045.69;5015920;28;20122;-84
2021/06/24 02:43:19;;;;;;;8.10;3.70;;;;;;;14.10;92.90;102053.19;5012426;28;20113;-85
2021/06/24 02:45:44;;;;;;;8.02;3.83;;;;;;;14.06;93.15;102057.91;5021313;28;20083;-83
2021/06/24 02:48:21;;;;;;;16.73;4.40;;;;;;;14.06;93.67;102060.53;5023979;28;20034;-85
2021/06/24 02:50:48;;;;;;;12.93;4.65;;;;;;;14.07;92.85;102058.72;4990666;28;20403;-84
2021/06/24 02:53:14;;;;;;;9.02;4.20;;;;;;;14.05;93.08;102060.66;5012024;28;20029;-83
2021/06/24 02:55:43;;;;;;;15.23;4.68;;;;;;;14.05;93.18;102069.41;4998548;28;20041;-82
2021/06/24 02:58:10;;;;;;;10.32;4.70;;;;;;;14.09;92.97;102076.09;4998871;28;20044;-84
2021/06/24 03:00:54;;;;;;;7.32;4.78;;;;;;;14.12;92.73;102081.09;5003995;28;20037;-84
2021/06/24 03:03:38;;;;;;;10.65;4.28;;;;;;;14.14;91.94;102068.59;5015853;28;20061;-86
2021/06/24 03:06:20;;;;;;;9.65;4.43;;;;;;;14.16;91.52;102060.53;5032810;28;20037;-85
2021/06/24 03:08:46;;;;;;;11.70;4.18;;;;;;;14.13;91.05;102058.19;4999623;28;20091;-84
2021/06/24 03:11:18;;;;;;;14.25;4.85;;;;;;;14.09;92.52;102055.00;4999113;28;20048;-84
2021/06/24 03:13:49;;;;;;;10.95;4.57;;;;;;;14.05;90.74;102053.56;5002716;28;20092;-83
2021/06/24 03:16:17;;;;;;;12.23;4.75;;;;;;;14.10;90.93;102048.72;5000486;28;20123;-87
2021/06/24 03:18:45;;;;;;;11.48;4.43;;;;;;;14.07;90.34;102045.53;5018074;28;20133;-83
2021/06/24 03:21:12;;;;;;;12.10;4.32;;;;;;;14.06;90.03;102043.88;5000114;28;20041;-83
2021/06/24 03:23:38;;;;;;;8.82;4.18;;;;;;;14.05;89.49;102034.28;5034487;28;20108;-84
2021/06/24 03:26:03;;;;;;;10.45;3.65;;;;;;;14.08;91.21;102039.31;5016834;28;20124;-83
2021/06/24 03:28:30;;;;;;;8.35;3.90;;;;;;;14.00;91.03;102037.34;4984428;28;20048;-85
2021/06/24 03:31:03;;;;;;;;;;;;;;;13.96;90.79;102038.59;4999021;28;20048;-84
2021/06/24 03:33:32;;;;;;;10.65;3.72;;;;;;;13.89;92.41;102034.84;5001543;28;19916;-84
2021/06/24 03:35:58;;;;;;;13.52;4.63;;;;;;;13.90;92.07;102037.34;5020138;28;20124;-84
2021/06/24 03:38:26;;;;;;;7.40;3.80;;;;;;;13.90;92.08;102047.03;5033322;28;20037;-82
2021/06/24 03:40:53;;;;;;;12.73;4.30;;;;;;;13.86;92.83;102045.66;5015829;28;20042;-85
2021/06/24 03:43:19;;;;;;;12.63;4.10;;;;;;;13.83;92.97;102046.75;5004711;28;20459;-84
2021/06/24 03:45:46;;;;;;;8.65;4.07;;;;;;;13.76;92.37;102051.72;5030982;28;20049;-82
2021/06/24 03:48:12;;;;;;;11.27;4.63;;;;;;;13.73;93.53;102057.31;5012892;28;20030;-83
2021/06/24 03:50:38;;;;;;;10.52;4.78;;;;;;;13.73;93.39;102057.31;5034321;28;20052;-85
2021/06/24 03:53:04;;;;;;;10.20;4.22;;;;;;;13.74;94.23;102063.41;5003777;28;20032;-84
2021/06/24 03:55:42;;;;;;;7.45;3.95;;;;;;;13.77;93.68;102066.59;5032242;28;20037;-84
2021/06/24 03:58:21;;;;;;;13.80;4.53;;;;;;;13.78;93.57;102064.78;5012090;28;20030;-81
2021/06/24 04:00:50;;;;;;;9.40;4.03;;;;;;;13.77;93.49;102055.22;5014938;28;20759;-84
2021/06/24 04:03:16;;;;;;;12.35;3.90;;;;;;;13.81;93.53;102065.34;5015875;28;20041;-85
2021/06/24 04:06:02;;;;;;;7.18;3.50;;;;;;;13.87;93.93;102063.16;5029833;28;20037;-84
2021/06/24 04:08:28;;;;;;;9.38;4.13;;;;;;;13.91;94.16;102064.53;5031531;28;20396;-83
2021/06/24 04:10:53;;;;;;;10.32;3.55;;;;;;;13.97;93.98;102049.00;5011628;28;20036;-85
2021/06/24 04:13:20;;;;;;;14.70;4.03;;;;;;;13.99;93.87;102051.50;5035070;28;20128;-85
2021/06/24 04:15:46;;;;;;;14.32;4.03;;;;;;;14.02;93.17;102043.31;5013102;28;20443;-85
2021/06/24 04:18:12;;;;;;;12.00;4.25;;;;;;;14.07;91.34;102056.94;5005897;28;20112;-84
2021/06/24 04:20:43;;;;;;;8.98;4.15;;;;;;;14.17;89.27;102064.84;5016081;28;20045;-88
2021/06/24 04:23:09;;;;;;;8.23;3.88;;;;;;;14.12;90.47;102054.69;5034553;28;20044;-83
2021/06/24 04:26:01;;;;;;;9.90;4.10;;;;;;;14.07;90.20;102058.72;5015615;28;20049;-84
2021/06/24 04:28:29;;;;;;;9.65;3.55;;;;;;;14.01;91.16;102054.81;5037278;28;20116;-81
2021/06/24 04:31:04;;;;;;;15.35;4.00;;;;;;;14.01;91.87;102068.03;5020129;28;20036;-84
2021/06/24 04:33:34;;;;;;;10.02;3.85;;;;;;;13.98;91.46;102058.59;4999709;28;20025;-80
2021/06/24 04:36:18;;;;;;;11.57;3.53;;;;;;;14.01;92.29;102052.19;5008823;28;20411;-85
2021/06/24 04:38:46;;;;;;;8.93;4.10;;;;;;;14.01;90.99;102055.69;5022371;28;20033;-84
2021/06/24 04:41:12;;;;;;;11.65;3.63;;;;;;;14.18;91.37;102053.31;4998474;28;20029;-81
2021/06/24 04:43:57;;;;;;;9.45;4.03;;;;;;;14.28;89.58;102043.63;5028232;28;20560;-82
2021/06/24 04:46:22;;;;;;;9.77;4.22;;;;;;;14.44;89.18;102044.84;5020787;28;20124;-84
2021/06/24 04:48:48;;;;;;;9.82;4.03;;;;;;;14.59;88.72;102046.94;5020724;28;20057;-84
2021/06/24 04:51:40;;;;;;;10.88;4.22;;;;;;;14.75;87.87;102051.66;5016712;28;20072;-84
2021/06/24 04:54:07;;;;;;;8.43;3.40;;;;;;;14.84;87.91;102041.19;5036742;28;20034;-82
2021/06/24 04:56:36;;;;;;;11.77;3.70;;;;;;;14.93;87.58;102041.16;4998809;28;20442;-83
2021/06/24 04:59:03;;;;;;;9.70;3.90;;;;;;;14.98;89.97;102049.50;5019363;28;20029;-82
2021/06/24 05:01:38;;;;;;;7.00;3.83;;;;;;;15.08;87.04;102046.00;5016646;28;20029;-83
2021/06/24 05:04:42;;;;;;;9.35;3.90;;;;;;;15.10;85.57;102049.34;4943764;28;20043;-85
2021/06/24 05:07:10;;;;;;;8.38;3.92;;;;;;;15.07;85.49;102049.59;4932466;29;20106;-85
2021/06/24 05:09:41;;;;;;;10.77;3.55;;;;;;;15.10;86.81;102060.72;4967302;28;20045;-84
2021/06/24 05:12:08;;;;;;;9.57;3.55;;;;;;;15.08;86.60;102062.69;4998669;28;20454;-82
2021/06/24 05:14:34;;;;;;;6.93;3.85;;;;;;;15.08;85.06;102061.84;4998506;28;20037;-83
2021/06/24 05:16:59;;;;;;;8.65;3.72;;;;;;;15.08;86.23;102057.41;5016569;28;20510;-85
2021/06/24 05:19:26;;;;;;;8.00;4.00;;;;;;;15.05;84.57;102062.13;5004506;28;20119;-83
2021/06/24 05:21:51;;;;;;;6.50;3.55;;;;;;;15.02;83.89;102057.97;4990101;28;20480;-82
2021/06/24 05:24:17;;;;;;;5.05;3.13;;;;;;;14.98;85.42;102051.31;5012972;28;20124;-85
2021/06/24 05:26:42;;;;;;;10.82;3.40;;;;;;;14.99;86.21;102059.13;4998655;28;20048;-83
2021/06/24 05:29:08;;;;;;;7.88;3.80;;;;;;;14.98;84.93;102056.59;5039985;28;20033;-80
2021/06/24 05:31:34;;;;;;;10.27;3.47;;;;;;;14.96;84.21;102056.75;5013700;28;20032;-85
2021/06/24 05:33:59;;;;;;;10.68;3.67;;;;;;;14.98;84.81;102046.88;5018431;28;20496;-84
2021/06/24 05:36:25;;;;;;;10.40;3.83;;;;;;;14.95;86.16;102044.50;5013534;28;20036;-81
2021/06/24 05:38:50;;;;;;;10.05;3.45;;;;;;;14.99;86.29;102045.91;5008757;28;20045;-83
2021/06/24 05:41:16;;;;;;;6.68;3.45;;;;;;;15.01;87.40;102035.16;5012248;28;20033;-84
2021/06/24 05:43:41;;;;;;;10.35;3.63;;;;;;;15.07;86.02;102039.03;4990278;28;20041;-84
2021/06/24 05:46:07;;;;;;;8.35;3.33;;;;;;;15.01;83.84;102035.16;5008794;28;20484;-83
2021/06/24 05:48:33;;;;;;;10.45;3.30;;;;;;;15.04;84.78;102031.41;5029293;28;20048;-83
2021/06/24 05:50:59;;;;;;;8.18;3.30;;;;;;;15.12;86.13;102034.16;5000493;28;20037;-83
2021/06/24 05:53:25;;;;;;;6.75;3.22;;;;;;;15.06;83.37;102027.66;5011827;28;20120;-83
2021/06/24 05:55:51;;;;;;;8.10;3.20;;;;;;;15.03;83.93;102024.47;5013935;28;20555;-84
2021/06/24 05:58:23;;;;;;;9.50;3.35;;;;;;;15.09;85.29;102032.66;5015052;28;20120;-84
2021/06/24 06:00:50;;;;;;;7.53;3.10;;;;;;;15.12;84.38;102021.78;5029814;28;20055;-83
2021/06/24 06:03:17;;;;;;;12.45;3.53;;;;;;;15.22;84.08;102039.41;5004572;28;20034;-84
2021/06/24 06:05:43;;;;;;;7.70;3.17;;;;;;;15.15;81.65;102031.25;4997476;28;20041;-85
2021/06/24 06:08:09;;;;;;;6.57;2.70;;;;;;;15.27;82.08;102029.25;5014579;28;20036;-86
2021/06/24 06:10:36;;;;;;;8.48;2.80;;;;;;;15.20;82.55;102013.16;5013299;28;20112;-84
2021/06/24 06:13:04;;;;;;;8.45;2.90;;;;;;;15.33;81.67;102028.66;5038604;28;20037;-83
2021/06/24 06:15:30;;;;;;;10.60;2.72;;;;;;;15.36;81.14;102023.06;5013918;28;20064;-84
2021/06/24 06:17:56;;;;;;;6.18;3.00;;;;;;;15.54;82.74;102031.91;5030527;28;20064;-83
2021/06/24 06:20:21;;;;;;;9.05;3.33;;;;;;;15.43;82.29;102026.81;5013712;28;20048;-83
2021/06/24 06:22:47;;;;;;;6.00;2.70;;;;;;;15.57;80.41;102025.47;5000230;28;20083;-82
2021/06/24 06:25:14;;;;;;;7.10;2.67;;;;;;;15.60;80.24;102027.81;5007114;28;20048;-83
2021/06/24 06:27:40;;;;;;;10.93;2.80;;;;;;;15.70;81.92;102036.53;5047290;28;20454;-83
2021/06/24 06:30:07;;;;;;;6.32;2.38;;;;;;;15.81;80.26;102034.69;5018439;28;20418;-84
2021/06/24 06:32:32;;;;;;;7.43;2.60;;;;;;;15.87;78.86;102029.63;5006019;28;20061;-86
2021/06/24 06:34:58;;;;;;;6.20;2.28;;;;;;;16.00;79.54;102020.50;5013973;28;20502;-83
2021/06/24 06:37:23;;;;;;;4.35;2.22;;;;;;;16.06;79.52;102019.88;5030699;28;20506;-84
2021/06/24 06:39:49;;;;;;;8.07;2.20;;;;;;;16.17;79.44;102030.25;5016079;28;20423;-82
2021/06/24 06:42:14;;;;;;;5.55;2.22;;;;;;;16.28;79.45;102031.81;5000461;28;20037;-86
2021/06/24 06:44:40;;;;;;;5.05;2.30;;;;;;;16.23;75.40;102026.97;5035981;28;20092;-84
2021/06/24 06:47:08;;;;;;;6.88;2.22;;;;;;;16.43;75.53;102032.94;5013260;28;20025;-84
2021/06/24 06:49:33;;;;;;;8.82;2.00;;;;;;;16.41;75.61;102040.22;5012223;28;20033;-82
2021/06/24 06:51:59;;;;;;;5.55;1.90;;;;;;;16.27;74.31;102038.09;5017196;28;20049;-82
2021/06/24 06:54:24;;;;;;;4.32;2.03;;;;;;;16.19;74.60;102027.44;5013556;28;20025;-83
2021/06/24 06:56:50;;;;;;;6.45;2.40;;;;;;;16.15;75.51;102030.38;5013370;28;20053;-84
2021/06/24 06:59:15;;;;;;;7.63;2.00;;;;;;;16.08;75.45;102047.03;5029344;28;20427;-82
2021/06/24 07:01:41;;;;;;;7.47;2.00;;;;;;;16.17;75.50;102040.00;5003794;28;20041;-82
2021/06/24 07:04:06;;;;;;;7.60;2.05;;;;;;;16.35;75.83;102038.19;5029716;28;20407;-84
2021/06/24 07:06:33;;;;;;;5.68;2.13;;;;;;;16.63;73.88;102045.97;5033084;28;20052;-85
2021/06/24 07:08:59;;;;;;;5.93;2.15;;;;;;;16.87;72.97;102042.69;5024628;28;20045;-84
2021/06/24 07:11:25;;;;;;;5.38;1.95;;;;;;;17.20;72.83;102046.38;5013512;28;20036;-85
2021/06/24 07:13:51;;;;;;;5.32;1.90;;;;;;;17.28;72.03;102041.09;4996502;28;20061;-84
2021/06/24 07:16:17;;;;;;;6.43;2.00;;;;;;;17.43;73.51;102036.03;5007719;28;20075;-83
2021/06/24 07:18:44;;;;;;;6.03;2.35;;;;;;;17.62;71.24;102040.22;5028913;28;20057;-83
2021/06/24 07:21:09;;;;;;;4.15;1.98;;;;;;;17.83;72.31;102037.13;4987664;28;20365;-81
2021/06/24 07:23:35;;;;;;;6.80;1.83;;;;;;;18.00;68.39;102035.34;5016075;28;20110;-86
2021/06/24 07:26:00;;;;;;;3.17;1.90;;;;;;;18.02;71.31;102022.75;5032898;28;20487;-82
2021/06/24 07:28:27;;;;;;;3.58;1.70;;;;;;;18.19;69.48;102030.72;5028966;28;20037;-85
2021/06/24 07:30:52;;;;;;;6.30;2.03;;;;;;;18.19;67.07;102028.91;4985511;28;20038;-83
2021/06/24 07:33:18;;;;;;;4.78;1.70;;;;;;;18.27;66.88;102033.38;5028035;28;20120;-82
2021/06/24 07:35:44;;;;;;;5.82;1.75;;;;;;;18.39;67.30;102031.25;5025820;28;20473;-83
2021/06/24 07:38:10;;;;;;;6.18;1.83;;;;;;;18.52;66.04;102031.56;4994357;28;20029;-85
2021/06/24 07:40:36;;;;;;;5.22;1.50;;;;;;;18.59;64.91;102019.25;5027081;28;20064;-82
2021/06/24 07:43:02;;;;;;;3.70;1.70;;;;;;;18.82;66.49;102026.56;5020360;28;20580;-82
2021/06/24 07:45:27;;;;;;;4.05;1.60;;;;;;;18.85;64.40;102028.88;5015603;28;20140;-83
2021/06/24 07:47:53;;;;;;;4.70;1.63;;;;;;;18.90;62.16;102031.03;5006252;28;20041;-83
2021/06/24 07:50:18;;;;;;;4.18;1.40;;;;;;;18.96;61.82;102031.16;5026156;28;20071;-82
2021/06/24 07:52:44;;;;;;;7.47;1.75;;;;;;;18.86;62.75;102027.88;5016114;28;20554;-85
2021/06/24 07:55:11;;;;;;;3.15;1.77;;;;;;;19.05;61.14;102027.47;5033289;28;20844;-84
2021/06/24 07:57:37;;;;;;;8.10;2.08;;;;;;;19.15;59.76;102027.28;5016009;28;20103;-83
2021/06/24 08:00:07;;;;;;;3.13;1.65;;;;;;;19.11;60.97;102017.97;4999307;28;20045;-83
2021/06/24 08:02:39;;;;;;;5.72;1.70;;;;;;;19.05;60.03;102014.19;5024859;28;20065;-86
2021/06/24 08:05:06;;;;;;;2.70;1.45;;;;;;;19.34;58.82;102015.38;5028162;28;20117;-86
2021/06/24 08:07:33;;;;;;;6.40;1.42;;;;;;;19.56;58.15;102021.78;5025582;28;20526;-84
2021/06/24 08:10:03;;;;;;;4.50;1.65;;;;;;;19.51;59.98;102007.34;5035288;28;20036;-85
2021/06/24 08:12:30;;;;;;;2.45;1.33;;;;;;;19.69;58.82;102013.22;5041052;28;20487;-84
2021/06/24 08:14:55;;;;;;;1.92;1.08;;;;;;;19.69;58.41;101997.25;5023149;28;20099;-84
2021/06/24 08:17:21;;;;;;;2.42;1.13;;;;;;;19.45;57.48;102003.53;5040187;28;20483;-86
2021/06/24 08:19:46;;;;;;;3.60;1.63;;;;;;;19.43;54.48;102000.22;5033570;28;20033;-84
2021/06/24 08:22:12;;;;;;;2.03;1.30;;;;;;;19.37;56.06;102008.91;5010028;28;20091;-87
2021/06/24 08:24:37;;;;;;;1.45;1.23;;;;;;;19.33;56.43;102004.94;5049258;28;20403;-82
2021/06/24 08:27:03;;;;;;;2.50;1.42;;;;;;;19.17;58.43;101998.66;5031731;28;20502;-83
2021/06/24 08:29:29;;;;;;;3.20;1.52;;;;;;;19.35;61.44;102001.09;5012425;28;20037;-82
2021/06/24 08:31:55;;;;;;;6.30;1.80;;;;;;;19.64;59.79;101989.78;5025807;28;20418;-83
2021/06/24 08:34:20;;;;;;;4.10;1.92;;;;;;;19.71;59.11;101997.06;5010858;28;20072;-84
2021/06/24 08:36:46;;;;;;;6.85;1.65;;;;;;;19.38;63.76;102002.56;5034819;28;20045;-84
2021/06/24 08:39:11;;;;;;;3.75;1.70;;;;;;;19.35;59.66;101990.47;5000902;28;20040;-84
2021/06/24 08:41:37;;;;;;;4.63;2.38;;;;;;;19.66;58.87;101992.25;5014768;28;20438;-84
2021/06/24 08:44:06;;;;;;;3.67;1.98;;;;;;;20.16;58.91;101990.94;5001792;28;20033;-84
2021/06/24 08:46:32;;;;;;;4.60;2.38;;;;;;;20.44;55.13;101979.69;5014810;28;20529;-84
2021/06/24 08:48:58;;;;;;;4.22;2.33;;;;;;;20.15;56.51;101983.94;5015165;28;20128;-86
2021/06/24 08:51:24;;;;;;;4.10;2.00;;;;;;;20.05;59.62;101982.53;5017062;28;20037;-87
2021/06/24 08:53:50;;;;;;;3.25;1.80;;;;;;;19.89;60.62;101987.00;5002089;28;20102;-84
2021/06/24 08:56:16;;;;;;;3.72;1.92;;;;;;;19.78;58.83;101985.56;5015251;28;20049;-84
2021/06/24 08:58:43;;;;;;;5.55;2.05;;;;;;;19.54;59.46;101988.38;5016108;28;20045;-87
2021/06/24 09:01:08;;;;;;;6.10;2.10;;;;;;;19.25;60.67;101984.53;5015416;28;20111;-85
2021/06/24 09:03:42;;;;;;;3.33;1.80;;;;;;;19.11;62.20;101988.72;5049055;28;20045;-84
2021/06/24 09:06:08;;;;;;;3.40;1.55;;;;;;;19.11;63.24;101988.72;5024065;28;20515;-86
2021/06/24 09:08:40;;;;;;;5.25;1.90;;;;;;;18.99;62.45;101988.28;4999417;28;20045;-85
2021/06/24 09:11:24;;;;;;;7.43;2.00;;;;;;;18.90;64.11;101993.81;5015192;28;20029;-84
2021/06/24 09:14:16;;;;;;;3.13;1.90;;;;;;;18.80;64.28;101988.66;5040092;28;20124;-84
2021/06/24 09:16:43;;;;;;;6.05;2.28;;;;;;;18.87;65.44;101992.31;4988840;28;20032;-82
2021/06/24 09:19:15;;;;;;;3.28;1.92;;;;;;;18.91;69.38;101992.78;5023495;28;20133;-82
2021/06/24 09:21:48;;;;;;;6.18;1.73;;;;;;;19.01;65.33;101982.81;5023590;28;20034;-84
2021/06/24 09:24:30;;;;;;;;;;;;;;;19.17;63.73;101992.53;5032282;28;20121;-79
2021/06/24 09:26:59;;;;;;;3.25;1.63;;;;;;;19.33;61.67;101981.81;5015190;28;20001;-84
2021/06/24 09:29:24;;;;;;;5.30;2.10;;;;;;;19.45;61.82;101977.75;5030394;28;20400;-81
2021/06/24 09:31:53;;;;;;;5.22;2.17;;;;;;;19.56;60.62;101983.69;4966615;28;20045;-84
2021/06/24 09:34:19;;;;;;;5.68;1.60;;;;;;;19.39;61.28;101964.34;5003079;28;20408;-85
2021/06/24 09:36:51;;;;;;;4.60;2.00;;;;;;;19.53;62.69;101986.69;5014581;28;20040;-84
2021/06/24 09:39:21;;;;;;;4.05;1.90;;;;;;;19.50;61.18;101984.41;4998051;28;20033;-85
2021/06/24 09:41:59;;;;;;;6.95;1.80;;;;;;;19.47;60.37;101985.56;5000638;28;20124;-86
2021/06/24 09:44:25;;;;;;;5.18;1.70;;;;;;;19.45;62.72;101984.91;5031369;28;20416;-84
2021/06/24 09:46:51;;;;;;;3.42;1.70;;;;;;;19.59;62.13;101980.66;4994575;28;20103;-84
2021/06/24 09:49:34;;;;;;;3.33;1.75;;;;;;;19.73;63.93;101987.94;5036467;28;20040;-84
2021/06/24 09:52:02;;;;;;;3.70;1.92;;;;;;;19.69;64.83;101980.47;5005191;28;20527;-86
2021/06/24 09:54:43;;;;;;;5.10;2.10;;;;;;;19.69;61.51;101983.94;5031755;28;20801;-84
2021/06/24 09:57:21;;;;;;;5.93;1.90;;;;;;;19.47;61.73;101969.59;5012118;28;20041;-85
2021/06/24 09:59:49;;;;;;;3.90;2.08;;;;;;;19.35;60.26;101982.47;5003026;28;20041;-84
2021/06/24 10:02:15;;;;;;;4.70;2.20;;;;;;;19.17;61.08;101973.91;5023390;28;20046;-83
2021/06/24 10:04:45;;;;;;;3.78;1.92;;;;;;;19.00;61.64;101984.63;5030160;28;20116;-80
2021/06/24 10:07:13;;;;;;;3.75;1.90;;;;;;;18.85;69.04;101979.22;5016880;28;20502;-85
2021/06/24 10:09:40;;;;;;;5.68;2.03;;;;;;;18.70;70.31;101972.88;5026330;28;20572;-80
2021/06/24 10:12:09;;;;;;;2.97;1.90;;;;;;;18.60;71.04;101967.75;4999495;28;20079;-84
2021/06/24 10:14:35;;;;;;;5.07;2.10;;;;;;;18.50;65.32;101975.09;5044923;28;20041;-84
2021/06/24 10:17:02;;;;;;;5.95;2.05;;;;;;;18.37;67.18;101974.81;5017485;28;20528;-82
2021/06/24 10:19:34;;;;;;;7.20;1.80;;;;;;;18.27;72.80;101973.16;5034678;28;20470;-85
2021/06/24 10:22:11;;;;;;;4.53;2.00;;;;;;;18.19;75.65;101975.78;5001081;28;20025;-83
2021/06/24 10:24:40;;;;;;;4.32;1.73;;;;;;;18.13;75.29;101967.69;5014117;28;20044;-85
2021/06/24 10:27:09;;;;;;;2.83;1.80;;;;;;;18.04;75.50;101970.31;5014482;28;20821;-84
2021/06/24 10:29:47;;;;;;;3.08;1.77;;;;;;;17.96;75.48;101966.84;5013217;28;20554;-86
2021/06/24 10:32:31;;;;;;;3.88;2.00;;;;;;;17.96;75.78;101966.84;4994501;28;20038;-84
2021/06/24 10:34:59;;;;;;;3.10;1.73;;;;;;;17.97;77.03;101968.50;4978586;28;20377;-84
2021/06/24 10:37:27;;;;;;;2.20;1.70;;;;;;;17.98;75.45;101963.03;5010665;28;20148;-85
2021/06/24 10:39:58;;;;;;;5.43;1.95;;;;;;;18.08;73.42;101957.53;4993862;28;20476;-84
2021/06/24 10:42:28;;;;;;;2.70;1.45;;;;;;;18.22;76.52;101956.88;5010902;28;20083;-84
2021/06/24 10:44:58;;;;;;;3.28;1.83;;;;;;;18.45;76.84;101958.84;5029169;28;20499;-83
2021/06/24 10:47:35;;;;;;;4.28;2.13;;;;;;;18.65;74.00;101960.13;5008884;28;20040;-85
2021/06/24 10:50:32;;;;;;;6.25;1.92;;;;;;;18.91;69.24;101964.41;5032922;28;20144;-83
2021/06/24 10:53:05;;;;;;;4.45;2.05;;;;;;;19.01;64.54;101951.72;5011164;28;20045;-86
2021/06/24 10:55:31;;;;;;;5.97;2.30;;;;;;;18.97;67.18;101958.38;5049583;28;20061;-82
2021/06/24 10:57:57;;;;;;;6.65;2.30;;;;;;;18.95;67.13;101948.91;5000485;28;20570;-83
2021/06/24 11:01:01;;;;;;;4.20;2.20;;;;;;;18.92;65.80;101952.75;5012986;28;20034;-87
2021/06/24 11:03:30;;;;;;;2.95;2.00;;;;;;;18.83;67.39;101953.78;5007197;28;20124;-87
2021/06/24 11:06:09;;;;;;;4.50;2.50;;;;;;;18.64;65.29;101941.69;5025209;28;20044;-85
2021/06/24 11:08:35;;;;;;;3.75;2.13;;;;;;;18.51;65.29;101944.88;4994549;28;20045;-86
2021/06/24 11:11:08;;;;;;;4.70;2.40;;;;;;;18.40;68.69;101945.22;5003585;28;20190;-86
2021/06/24 11:13:40;;;;;;;5.00;2.03;;;;;;;18.40;74.11;101947.88;5050358;28;20737;-83
2021/06/24 11:16:06;;;;;;;;;;;;;;;18.34;76.74;101940.59;5034297;28;20049;-85
2021/06/24 11:18:32;;;;;;;4.88;1.95;;;;;;;18.38;77.92;101940.06;5034406;28;20409;-87
2021/06/24 11:21:00;;;;;;;5.55;1.92;;;;;;;18.43;75.92;101942.25;5037359;28;20183;-87
2021/06/24 11:23:36;;;;;;;5.10;2.80;;;;;;;18.66;72.33;101937.03;5037643;28;20058;-88
2021/06/24 11:26:10;;;;;;;3.08;2.15;;;;;;;18.90;66.91;101933.50;5012583;28;20048;-87
2021/06/24 11:28:49;;;;;;;5.07;2.10;;;;;;;19.25;68.55;101939.31;5018344;28;20411;-88
2021/06/24 11:31:18;;;;;;;4.43;2.08;;;;;;;19.67;70.17;101937.22;5009237;28;20723;-87
2021/06/24 11:34:01;;;;;;;5.82;2.67;;;;;;;20.13;60.68;101930.03;4996505;28;20033;-86